Terminal Aerodrome Forecast
Issued by NWS

Home | Current Version | Previous Version | Text Only | Print | Product List | Glossary On
Versions: 1 2 3 4 5 6 7 8 9 10 11 12 13 14 15
000
FTUS44 KTSA 301700
TAFBVO
TAF
KBVO 301725Z 3018/3118 13002KT P6SM FEW040
     FM310000 VRB03KT P6SM FEW250
     FM311400 18006KT P6SM FEW250
     FM311600 19011G17KT P6SM FEW040 SCT250=

USA.gov is the U.S. government's official web portal to all federal, state and local government web resources and services.